Time;durP1;ratioP1;P1;durP2;ratioP2;P2;SDS_P1;SDS_P2;PMS_P1;PMS_P2;Temp;Humidity;BMP_temperature;BMP_pressure;BME280_temperature;BME280_humidity;BME280_pressure;Samples;Min_cycle;Max_cycle;Signal;HPM_P1;HPM_P2
2023/03/26 00:01:20;;;;;;;;;;;;;;;8.86;100.00;92832.91;5026302;28;19954;-38
2023/03/26 00:03:45;;;;;;;;;;;;;;;8.77;100.00;92831.44;5025577;28;19933;-38
2023/03/26 00:06:15;;;;;;;;;;;;;;;8.93;100.00;92841.16;5015939;28;19952;-38
2023/03/26 00:08:40;;;;;;;;;;;;;;;8.96;98.65;92837.31;5010922;28;20613;-38
2023/03/26 00:11:06;;;;;;;;;;;;;;;8.83;99.52;92831.28;5016557;28;19934;-38
2023/03/26 00:13:32;;;;;;;;;;;;;;;8.63;100.00;92843.94;5024490;28;20599;-38
2023/03/26 00:15:57;;;;;;;;;;;;;;;8.48;100.00;92867.97;5030685;28;20029;-38
2023/03/26 00:18:28;;;;;;;;;;;;;;;8.67;100.00;92846.31;5022709;28;20277;-38
2023/03/26 00:20:54;;;;;;;;;;;;;;;8.63;100.00;92852.19;5026494;28;19937;-38
2023/03/26 00:23:19;;;;;;;;;;;;;;;8.65;99.65;92851.63;5027681;28;19934;-38
2023/03/26 00:25:49;;;;;;;;;;;;;;;8.70;99.64;92856.97;5029865;28;20389;-38
2023/03/26 00:28:16;;;;;;;;;;;;;;;8.69;99.47;92858.25;5024981;28;20012;-38
2023/03/26 00:30:41;;;;;;;;;;;;;;;8.73;98.30;92871.63;5025941;28;20368;-38
2023/03/26 00:33:06;;;;;;;;;;;;;;;8.71;98.68;92872.19;5026060;28;19929;-38
2023/03/26 00:35:35;;;;;;;;;;;;;;;8.86;96.69;92874.94;5030142;28;20007;-38
2023/03/26 00:38:00;;;;;;;;;;;;;;;8.89;95.70;92870.34;5029337;28;19941;-38
2023/03/26 00:40:25;;;;;;;;;;;;;;;8.91;95.95;92865.75;5026978;28;19955;-38
2023/03/26 00:42:50;;;;;;;;;;;;;;;8.98;94.06;92870.53;5033073;28;19934;-38
2023/03/26 00:45:20;;;;;;;;;;;;;;;8.98;94.63;92865.03;5024345;28;20513;-38
2023/03/26 00:47:45;;;;;;;;;;;;;;;8.98;94.73;92854.03;5024214;28;19932;-38
2023/03/26 00:50:14;;;;;;;;;;;;;;;8.86;94.27;92850.16;5026816;28;19986;-38
2023/03/26 00:52:40;;;;;;;;;;;;;;;8.95;94.70;92854.38;5028622;28;19933;-38
2023/03/26 00:55:06;;;;;;;;;;;;;;;8.95;94.48;92857.13;5022802;28;20215;-38
2023/03/26 00:57:31;;;;;;;;;;;;;;;8.96;93.44;92855.84;5014985;28;19930;-38
2023/03/26 00:59:56;;;;;;;;;;;;;;;8.94;94.04;92861.88;5019819;28;20621;-39
2023/03/26 01:02:23;;;;;;;;;;;;;;;8.91;93.30;92859.53;5023526;28;20983;-42
2023/03/26 01:04:56;;;;;;;;;;;;;;;8.81;95.11;92842.84;5019621;28;20396;-42
2023/03/26 01:07:27;;;;;;;;;;;;;;;8.71;94.24;92847.41;5053437;28;19983;-38
2023/03/26 01:09:54;;;;;;;;;;;;;;;8.65;94.17;92835.13;5020947;28;20413;-38
2023/03/26 01:12:21;;;;;;;;;;;;;;;8.44;95.61;92829.09;5037763;28;19973;-38
2023/03/26 01:14:46;;;;;;;;;;;;;;;8.46;95.04;92821.00;5058887;28;20023;-38
2023/03/26 01:17:11;;;;;;;;;;;;;;;8.44;94.97;92818.81;5028059;28;20034;-39
2023/03/26 01:19:46;;;;;;;;;;;;;;;8.49;93.76;92820.63;5023429;28;19957;-39
2023/03/26 01:22:15;;;;;;;;;;;;;;;8.43;94.28;92827.59;5023508;28;19931;-39
2023/03/26 01:24:41;;;;;;;;;;;;;;;8.30;95.49;92829.25;5028337;28;19937;-39
2023/03/26 01:27:18;;;;;;;;;;;;;;;8.09;97.01;92839.66;5026029;28;20479;-39
2023/03/26 01:29:44;;;;;;;;;;;;;;;8.10;97.27;92832.16;5023617;28;19997;-39
2023/03/26 01:32:29;;;;;;;;;;;;;;;8.04;97.40;92843.31;5020777;28;19963;-39
2023/03/26 01:34:56;;;;;;;;;;;;;;;7.94;98.07;92844.38;5026727;28;19939;-39
2023/03/26 01:37:26;;;;;;;;;;;;;;;7.71;98.94;92858.03;5023373;28;19944;-39
2023/03/26 01:39:55;;;;;;;;;;;;;;;7.51;99.55;92851.38;5057203;28;20001;-38
2023/03/26 01:42:33;;;;;;;;;;;;;;;7.71;100.00;92852.53;5033893;28;19953;-39
2023/03/26 01:45:00;;;;;;;;;;;;;;;7.65;100.00;92857.47;5022130;28;19935;-39
2023/03/26 01:47:25;;;;;;;;;;;;;;;7.68;100.00;92853.66;5060974;28;19960;-39
2023/03/26 01:49:50;;;;;;;;;;;;;;;7.91;99.37;92857.19;5026661;28;19974;-39
2023/03/26 01:52:18;;;;;;;;;;;;;;;7.88;99.02;92858.31;5028092;28;19940;-39
2023/03/26 01:54:45;;;;;;;;;;;;;;;7.98;97.79;92858.50;5029575;28;19934;-39
2023/03/26 01:57:19;;;;;;;;;;;;;;;8.04;96.47;92854.31;5038753;28;19982;-39
2023/03/26 01:59:50;;;;;;;;;;;;;;;8.06;95.98;92857.22;5020663;28;20042;-39
2023/03/26 02:02:15;;;;;;;;;;;;;;;8.10;96.31;92859.66;5052886;28;19917;-39
2023/03/26 02:04:52;;;;;;;;;;;;;;;8.25;95.59;92862.41;5029307;28;19937;-39
2023/03/26 02:07:33;;;;;;;;;;;;;;;8.24;95.49;92866.44;5023553;28;19932;-39
2023/03/26 02:10:01;;;;;;;;;;;;;;;8.30;92.79;92867.75;5047089;28;19936;-39
2023/03/26 02:12:26;;;;;;;;;;;;;;;8.37;91.27;92867.03;5047979;28;19932;-39
2023/03/26 02:14:51;;;;;;;;;;;;;;;8.46;90.27;92871.28;5050815;28;20383;-39
2023/03/26 02:17:18;;;;;;;;;;;;;;;8.38;90.28;92874.00;5029008;28;19938;-39
2023/03/26 02:19:43;;;;;;;;;;;;;;;8.27;91.21;92874.34;5021045;28;19938;-39
2023/03/26 02:22:10;;;;;;;;;;;;;;;8.17;92.48;92880.91;5028407;28;20338;-39
2023/03/26 02:24:38;;;;;;;;;;;;;;;8.38;90.75;92878.78;5027647;28;20313;-39
2023/03/26 02:27:06;;;;;;;;;;;;;;;8.29;90.33;92873.81;5060804;28;19926;-39
2023/03/26 02:29:36;;;;;;;;;;;;;;;8.15;89.27;92864.22;5028943;28;19929;-39
2023/03/26 02:32:03;;;;;;;;;;;;;;;8.19;87.10;92876.31;5022462;28;19974;-39
2023/03/26 02:34:29;;;;;;;;;;;;;;;8.16;87.37;92860.19;5023926;28;20479;-39
2023/03/26 02:36:55;;;;;;;;;;;;;;;8.17;86.58;92867.16;5018658;28;20064;-39
2023/03/26 02:39:21;;;;;;;;;;;;;;;8.28;85.74;92867.56;5022047;28;20003;-39
2023/03/26 02:41:46;;;;;;;;;;;;;;;8.17;86.26;92867.16;5027184;28;20016;-39
2023/03/26 02:44:11;;;;;;;;;;;;;;;8.10;85.53;92867.88;5023929;28;20049;-39
2023/03/26 02:46:37;;;;;;;;;;;;;;;8.09;86.18;92882.91;5025965;28;19931;-39
2023/03/26 02:49:02;;;;;;;;;;;;;;;8.07;87.11;92871.72;5025365;28;19929;-39
2023/03/26 02:51:27;;;;;;;;;;;;;;;8.16;85.92;92868.44;5029270;28;19932;-39
2023/03/26 02:53:53;;;;;;;;;;;;;;;8.11;87.20;92870.09;5026621;28;19979;-39
2023/03/26 02:56:19;;;;;;;;;;;;;;;8.14;86.93;92865.50;5023985;28;19930;-39
2023/03/26 02:58:45;;;;;;;;;;;;;;;8.11;85.93;92864.59;5027171;28;20038;-39
2023/03/26 03:01:11;;;;;;;;;;;;;;;8.02;86.13;92870.59;5016075;28;19960;-38
2023/03/26 03:03:36;;;;;;;;;;;;;;;8.03;85.97;92874.09;5014866;28;20437;-39
2023/03/26 03:06:02;;;;;;;;;;;;;;;7.93;85.80;92873.88;5020745;28;19933;-39
2023/03/26 03:08:28;;;;;;;;;;;;;;;7.71;87.45;92882.78;5017017;28;19934;-39
2023/03/26 03:11:05;;;;;;;;;;;;;;;7.76;87.25;92884.63;5024921;28;19929;-39
2023/03/26 03:13:31;;;;;;;;;;;;;;;7.79;86.57;92883.56;5018265;28;19935;-39
2023/03/26 03:15:56;;;;;;;;;;;;;;;7.71;87.67;92887.56;5023917;28;19932;-39
2023/03/26 03:18:21;;;;;;;;;;;;;;;7.72;87.06;92895.25;5023145;28;19933;-39
2023/03/26 03:20:46;;;;;;;;;;;;;;;7.60;88.12;92894.81;5028602;28;20012;-39
2023/03/26 03:23:12;;;;;;;;;;;;;;;7.54;88.26;92899.00;5031944;28;19931;-39
2023/03/26 03:25:39;;;;;;;;;;;;;;;7.58;88.03;92902.88;5025992;28;19929;-39
2023/03/26 03:28:05;;;;;;;;;;;;;;;7.50;88.93;92904.84;5029715;28;19952;-39
2023/03/26 03:30:30;;;;;;;;;;;;;;;7.58;87.62;92907.63;5031648;28;20411;-39
2023/03/26 03:32:57;;;;;;;;;;;;;;;7.71;85.27;92904.75;5025890;28;19963;-39
2023/03/26 03:35:23;;;;;;;;;;;;;;;7.64;87.31;92902.72;5028827;28;19933;-39
2023/03/26 03:37:48;;;;;;;;;;;;;;;7.74;86.95;92905.69;5029639;28;19941;-38
2023/03/26 03:40:13;;;;;;;;;;;;;;;7.69;87.07;92917.59;5017848;28;20846;-38
2023/03/26 03:42:39;;;;;;;;;;;;;;;7.74;87.32;92908.44;5029969;28;19978;-38
2023/03/26 03:45:05;;;;;;;;;;;;;;;7.80;86.80;92917.25;5025225;28;20332;-38
2023/03/26 03:47:30;;;;;;;;;;;;;;;7.94;85.45;92913.84;5031207;28;20474;-38
2023/03/26 03:49:58;;;;;;;;;;;;;;;7.81;85.76;92921.47;5024859;28;20026;-38
2023/03/26 03:52:24;;;;;;;;;;;;;;;7.84;85.99;92925.91;5025728;28;20561;-38
2023/03/26 03:54:49;;;;;;;;;;;;;;;7.85;85.53;92919.09;5021049;28;19939;-38
2023/03/26 03:57:17;;;;;;;;;;;;;;;7.78;85.93;92930.78;5023952;28;20698;-38
2023/03/26 03:59:43;;;;;;;;;;;;;;;7.88;85.91;92923.53;5032806;28;19948;-38
2023/03/26 04:02:09;;;;;;;;;;;;;;;7.82;86.16;92931.91;5041737;28;20357;-38
2023/03/26 04:04:36;;;;;;;;;;;;;;;7.85;85.73;92924.59;5036288;28;20000;-38
2023/03/26 04:07:01;;;;;;;;;;;;;;;7.75;85.85;92931.91;5031674;28;19946;-38
2023/03/26 04:09:26;;;;;;;;;;;;;;;7.80;87.17;92933.72;5022591;28;19928;-38
2023/03/26 04:11:52;;;;;;;;;;;;;;;7.81;87.19;92943.47;5022730;28;19937;-38
2023/03/26 04:14:17;;;;;;;;;;;;;;;7.79;88.57;92946.75;5020226;28;20363;-38
2023/03/26 04:16:42;;;;;;;;;;;;;;;7.75;90.22;92953.88;5024860;28;19973;-38
2023/03/26 04:19:08;;;;;;;;;;;;;;;7.75;90.21;92949.13;5023092;28;20038;-38
2023/03/26 04:21:36;;;;;;;;;;;;;;;7.69;91.65;92965.00;5026297;28;19940;-38
2023/03/26 04:24:03;;;;;;;;;;;;;;;7.74;91.17;92966.13;5028252;28;20029;-38
2023/03/26 04:26:29;;;;;;;;;;;;;;;7.83;91.62;92980.13;5026522;28;20406;-38
2023/03/26 04:28:55;;;;;;;;;;;;;;;7.89;91.30;92980.69;5053719;28;19928;-38
2023/03/26 04:31:27;;;;;;;;;;;;;;;7.89;92.11;92991.69;5058043;28;20041;-38
2023/03/26 04:33:54;;;;;;;;;;;;;;;7.92;90.90;92985.13;5027021;28;20659;-38
2023/03/26 04:36:21;;;;;;;;;;;;;;;7.90;90.73;92992.44;5018525;28;20464;-39
2023/03/26 04:38:48;;;;;;;;;;;;;;;7.98;91.88;92998.69;5029308;28;19927;-39
2023/03/26 04:41:13;;;;;;;;;;;;;;;7.84;91.95;92980.88;5025113;28;20002;-39
2023/03/26 04:43:45;;;;;;;;;;;;;;;7.90;91.81;92997.94;5024976;28;20015;-39
2023/03/26 04:46:11;;;;;;;;;;;;;;;8.01;91.60;93000.38;5019396;28;19934;-39
2023/03/26 04:48:39;;;;;;;;;;;;;;;8.05;91.33;93000.75;5027849;28;19933;-39
2023/03/26 04:51:08;;;;;;;;;;;;;;;7.92;90.77;92995.38;5022869;28;19997;-38
2023/03/26 04:53:34;;;;;;;;;;;;;;;7.91;92.12;93005.63;5049165;28;20029;-39
2023/03/26 04:56:01;;;;;;;;;;;;;;;8.00;91.77;93007.13;5057229;28;20534;-38
2023/03/26 04:58:31;;;;;;;;;;;;;;;8.17;91.53;93001.88;5026368;28;19975;-39
2023/03/26 05:01:00;;;;;;;;;;;;;;;8.22;90.23;93009.25;5023405;28;20059;-38
2023/03/26 05:03:30;;;;;;;;;;;;;;;8.32;88.25;93013.72;5025239;28;19943;-38
2023/03/26 05:05:59;;;;;;;;;;;;;;;8.35;89.01;93009.88;5020937;28;19925;-39
2023/03/26 05:08:25;;;;;;;;;;;;;;;8.32;88.81;93016.47;5028304;28;20329;-38
2023/03/26 05:10:51;;;;;;;;;;;;;;;8.27;89.12;93013.88;5026097;28;19937;-38
2023/03/26 05:13:16;;;;;;;;;;;;;;;8.28;86.48;93012.59;5024621;28;19944;-39
2023/03/26 05:15:41;;;;;;;;;;;;;;;8.49;85.32;93026.97;5027788;28;20028;-39
2023/03/26 05:18:07;;;;;;;;;;;;;;;8.44;85.21;93016.88;5020709;28;20318;-38
2023/03/26 05:20:33;;;;;;;;;;;;;;;8.42;82.36;93024.94;5024366;28;19953;-39
2023/03/26 05:22:58;;;;;;;;;;;;;;;8.60;81.12;93037.66;5018642;28;19964;-38
2023/03/26 05:25:23;;;;;;;;;;;;;;;8.86;77.67;93034.59;5019206;28;20030;-38
2023/03/26 05:27:49;;;;;;;;;;;;;;;9.15;75.35;93049.72;5019427;28;19928;-38
2023/03/26 05:30:15;;;;;;;;;;;;;;;9.12;74.24;93061.81;5027281;28;19937;-38
2023/03/26 05:32:41;;;;;;;;;;;;;;;9.07;74.73;93057.22;5018384;28;19968;-38
2023/03/26 05:35:06;;;;;;;;;;;;;;;9.30;70.70;93053.75;5025015;28;19985;-39
2023/03/26 05:37:32;;;;;;;;;;;;;;;9.48;71.71;93053.41;5030342;28;20309;-39
2023/03/26 05:39:58;;;;;;;;;;;;;;;9.75;68.65;93056.50;5024796;28;19918;-39
2023/03/26 05:42:23;;;;;;;;;;;;;;;9.73;66.28;93056.31;5022440;28;19958;-39
2023/03/26 05:44:48;;;;;;;;;;;;;;;9.99;65.82;93055.19;5029410;28;20452;-39
2023/03/26 05:47:14;;;;;;;;;;;;;;;9.55;66.27;93066.44;5020327;28;20372;-38
2023/03/26 05:49:39;;;;;;;;;;;;;;;10.16;63.64;93053.34;5028395;28;20079;-38
2023/03/26 05:52:05;;;;;;;;;;;;;;;10.61;62.85;93064.22;5024656;28;19936;-38
2023/03/26 05:54:30;;;;;;;;;;;;;;;11.00;63.70;93056.50;5013031;28;19932;-38
2023/03/26 05:56:56;;;;;;;;;;;;;;;11.67;62.05;93041.53;5020380;28;19925;-38
2023/03/26 05:59:21;;;;;;;;;;;;;;;11.87;58.60;93050.72;5017732;28;19961;-38
2023/03/26 06:01:46;;;;;;;;;;;;;;;12.24;59.19;93057.22;5024963;28;19967;-39
2023/03/26 06:04:12;;;;;;;;;;;;;;;12.21;55.45;93044.53;5021108;28;19933;-39
2023/03/26 06:06:38;;;;;;;;;;;;;;;12.86;54.72;93043.56;5028833;28;19913;-38
2023/03/26 06:09:03;;;;;;;;;;;;;;;13.23;54.10;93038.84;5038672;28;20400;-38
2023/03/26 06:11:29;;;;;;;;;;;;;;;12.96;52.71;93040.88;5029179;28;20166;-38
2023/03/26 06:13:54;;;;;;;;;;;;;;;12.93;53.08;93044.78;5024655;28;19913;-39
2023/03/26 06:16:19;;;;;;;;;;;;;;;13.57;51.95;93046.31;5025327;28;19964;-39
2023/03/26 06:18:45;;;;;;;;;;;;;;;14.40;50.05;93050.50;5028971;28;19924;-39
2023/03/26 06:21:11;;;;;;;;;;;;;;;15.05;48.46;93050.34;5031251;28;20083;-39
2023/03/26 06:23:36;;;;;;;;;;;;;;;15.62;46.54;93055.03;5032596;28;20015;-39
2023/03/26 06:26:01;;;;;;;;;;;;;;;16.97;44.46;93048.09;5027567;28;19937;-38
2023/03/26 06:28:26;;;;;;;;;;;;;;;17.17;43.16;93046.56;5032497;28;19956;-39
2023/03/26 06:30:52;;;;;;;;;;;;;;;18.08;41.82;93052.91;5032281;28;19936;-39
2023/03/26 06:33:17;;;;;;;;;;;;;;;18.57;39.16;93050.22;5021813;28;20039;-39
2023/03/26 06:35:44;;;;;;;;;;;;;;;18.63;38.63;93050.56;5028725;28;19956;-39
2023/03/26 06:38:09;;;;;;;;;;;;;;;18.86;36.96;93056.81;5027125;28;19947;-39
2023/03/26 06:40:34;;;;;;;;;;;;;;;18.49;37.42;93060.94;5027643;28;19945;-39
2023/03/26 06:43:00;;;;;;;;;;;;;;;19.60;34.77;93065.16;5020503;28;19936;-39
2023/03/26 06:45:26;;;;;;;;;;;;;;;18.10;36.24;93064.19;5020569;28;19925;-39
2023/03/26 06:47:51;;;;;;;;;;;;;;;17.95;36.11;93059.09;5036780;28;19934;-39
2023/03/26 06:50:17;;;;;;;;;;;;;;;18.23;35.88;93056.56;5036400;28;19927;-39
2023/03/26 06:52:42;;;;;;;;;;;;;;;19.52;33.67;93051.47;5033616;28;19929;-39
2023/03/26 06:55:09;;;;;;;;;;;;;;;19.72;32.51;93051.81;5030930;28;19986;-39
2023/03/26 06:57:34;;;;;;;;;;;;;;;20.19;31.46;93055.75;5025320;28;19937;-39
2023/03/26 07:00:00;;;;;;;;;;;;;;;20.85;31.14;93047.22;5028206;28;19961;-39
2023/03/26 07:02:25;;;;;;;;;;;;;;;21.90;30.65;93049.47;5026208;28;20462;-39
2023/03/26 07:04:50;;;;;;;;;;;;;;;22.50;29.10;93052.19;5032084;28;19938;-39
2023/03/26 07:07:17;;;;;;;;;;;;;;;21.02;31.88;93052.28;5027434;28;19935;-39
2023/03/26 07:09:42;;;;;;;;;;;;;;;21.08;30.71;93061.03;5040444;28;19936;-39
2023/03/26 07:12:08;;;;;;;;;;;;;;;21.06;32.06;93065.81;5027143;28;20327;-39
2023/03/26 07:14:33;;;;;;;;;;;;;;;21.37;29.68;93062.41;5017234;28;19944;-40
2023/03/26 07:16:59;;;;;;;;;;;;;;;21.10;30.35;93066.75;5023284;28;20581;-39
2023/03/26 07:19:25;;;;;;;;;;;;;;;21.81;29.58;93056.06;5025236;28;20342;-40
2023/03/26 07:21:50;;;;;;;;;;;;;;;22.87;28.40;93054.50;5025738;28;19938;-39
2023/03/26 07:24:16;;;;;;;;;;;;;;;23.63;27.69;93051.31;5027744;28;19943;-40
2023/03/26 07:27:05;;;;;;;;;;;;;;;22.70;30.41;93054.47;5029519;28;20397;-40
2023/03/26 07:29:34;;;;;;;;;;;;;;;23.08;30.74;93048.38;5028872;28;20573;-40
2023/03/26 07:32:26;;;;;;;;;;;;;;;23.23;27.44;93044.03;5045151;28;20234;-39
2023/03/26 07:35:04;;;;;;;;;;;;;;;25.58;27.35;93052.75;5020915;28;19961;-39
2023/03/26 07:37:33;;;;;;;;;;;;;;;25.95;23.88;93043.28;5048844;28;19938;-39
2023/03/26 07:39:58;;;;;;;;;;;;;;;25.49;24.02;93047.50;5023357;28;19951;-39
2023/03/26 07:42:26;;;;;;;;;;;;;;;26.65;22.10;93044.69;5014740;28;19955;-39
2023/03/26 07:44:58;;;;;;;;;;;;;;;27.57;23.15;93040.78;5016950;28;19937;-39
2023/03/26 07:47:27;;;;;;;;;;;;;;;28.10;21.11;93037.09;5039151;28;19989;-37
2023/03/26 07:49:53;;;;;;;;;;;;;;;25.28;23.44;93043.25;5049842;28;19937;-39
2023/03/26 07:52:19;;;;;;;;;;;;;;;25.43;21.60;93048.03;5019257;28;19933;-39
2023/03/26 07:54:44;;;;;;;;;;;;;;;25.02;21.66;93047.28;5018660;28;20028;-39
2023/03/26 07:57:15;;;;;;;;;;;;;;;26.17;24.60;93057.41;5023910;28;19936;-39
2023/03/26 07:59:46;;;;;;;;;;;;;;;25.67;27.61;93058.66;5020263;28;20079;-39
2023/03/26 08:02:15;;;;;;;;;;;;;;;26.78;25.79;93048.59;5033047;28;20059;-39
2023/03/26 08:04:43;;;;;;;;;;;;;;;27.07;25.29;93062.16;5023061;28;19933;-39
2023/03/26 08:07:10;;;;;;;;;;;;;;;26.02;25.96;93052.69;5018750;28;19984;-39
2023/03/26 08:09:38;;;;;;;;;;;;;;;23.63;30.59;93054.13;5053202;28;19938;-38
2023/03/26 08:12:15;;;;;;;;;;;;;;;24.31;29.99;93060.97;5022004;28;19941;-39
2023/03/26 08:14:46;;;;;;;;;;;;;;;26.04;27.15;93042.16;5053691;28;20269;-39
2023/03/26 08:17:43;;;;;;;;;;;;;;;23.96;29.31;93048.38;5022222;28;20025;-39
2023/03/26 08:20:16;;;;;;;;;;;;;;;25.84;27.55;93047.19;5025703;28;20058;-39
2023/03/26 08:22:42;;;;;;;;;;;;;;;26.25;26.15;93046.34;5058210;28;19934;-39
2023/03/26 08:25:10;;;;;;;;;;;;;;;27.49;24.68;93039.84;5024708;28;19932;-39
2023/03/26 08:27:40;;;;;;;;;;;;;;;28.22;23.73;93039.47;5022126;28;19933;-39
2023/03/26 08:30:08;;;;;;;;;;;;;;;27.27;24.02;93037.16;5065789;28;20596;-39
2023/03/26 08:32:34;;;;;;;;;;;;;;;25.16;27.40;93042.13;5024286;28;19933;-39
2023/03/26 08:35:00;;;;;;;;;;;;;;;26.44;26.06;93041.94;5029030;28;19943;-38
2023/03/26 08:37:26;;;;;;;;;;;;;;;26.65;25.20;93041.84;5023185;28;20700;-38
2023/03/26 08:39:51;;;;;;;;;;;;;;;26.60;25.46;93039.56;5028687;28;19983;-38
2023/03/26 08:42:16;;;;;;;;;;;;;;;25.17;26.63;93038.66;5024859;28;20338;-38
2023/03/26 08:45:01;;;;;;;;;;;;;;;25.81;27.03;93034.38;5027114;28;19929;-38
2023/03/26 08:47:26;;;;;;;;;;;;;;;26.51;26.17;93032.25;5025122;28;19993;-39
2023/03/26 08:50:10;;;;;;;;;;;;;;;27.15;25.15;93033.28;5025325;28;20028;-38
2023/03/26 08:52:54;;;;;;;;;;;;;;;27.87;24.46;93017.38;5010971;28;19936;-39
2023/03/26 08:55:19;;;;;;;;;;;;;;;27.51;24.73;93025.72;5029254;28;19936;-39
2023/03/26 08:57:47;;;;;;;;;;;;;;;28.40;23.79;93017.13;5028167;28;19940;-38
2023/03/26 09:00:23;;;;;;;;;;;;;;;26.01;23.73;93022.97;5029350;28;19958;-38
2023/03/26 09:03:07;;;;;;;;;;;;;;;26.86;25.69;93018.38;5027494;28;20470;-38
2023/03/26 09:05:36;;;;;;;;;;;;;;;27.22;25.33;93026.38;5021358;28;19982;-38
2023/03/26 09:08:20;;;;;;;;;;;;;;;28.25;24.59;93021.81;5055001;28;19943;-38
2023/03/26 09:10:51;;;;;;;;;;;;;;;29.47;24.49;93017.09;5019094;28;20020;-39
2023/03/26 09:13:19;;;;;;;;;;;;;;;29.31;22.40;93027.47;5028578;28;19997;-38
2023/03/26 09:15:45;;;;;;;;;;;;;;;29.50;20.67;93035.63;5032711;28;19964;-38
2023/03/26 09:18:19;;;;;;;;;;;;;;;29.87;19.35;93025.59;5025340;28;19973;-39
2023/03/26 09:20:47;;;;;;;;;;;;;;;29.84;21.46;93019.13;5022226;28;19956;-39
2023/03/26 09:23:31;;;;;;;;;;;;;;;28.69;22.90;93024.88;5019634;28;19942;-39
2023/03/26 09:26:02;;;;;;;;;;;;;;;28.83;21.42;93036.50;5021674;28;19946;-39
2023/03/26 09:28:46;;;;;;;;;;;;;;;29.47;22.42;93039.13;5024246;28;19948;-38
2023/03/26 09:31:20;;;;;;;;;;;;;;;29.24;21.97;93030.22;5015154;28;20184;-39
2023/03/26 09:33:52;;;;;;;;;;;;;;;29.95;20.26;93025.72;5017670;28;19979;-39
2023/03/26 09:36:21;;;;;;;;;;;;;;;29.34;21.22;93032.53;5013591;28;19964;-39
2023/03/26 09:38:53;;;;;;;;;;;;;;;28.89;21.93;93028.09;5028369;28;20334;-39
2023/03/26 09:41:21;;;;;;;;;;;;;;;28.35;22.45;93024.16;5020616;28;19941;-39
2023/03/26 09:43:53;;;;;;;;;;;;;;;29.06;21.32;93015.63;5026192;28;19941;-39
2023/03/26 09:46:27;;;;;;;;;;;;;;;27.47;22.89;93023.50;5023280;28;19939;-38
2023/03/26 09:49:14;;;;;;;;;;;;;;;25.61;24.64;93027.38;5053536;28;19935;-38
2023/03/26 09:51:52;;;;;;;;;;;;;;;26.17;24.70;93023.47;5038283;28;19937;-38
2023/03/26 09:54:36;;;;;;;;;;;;;;;26.64;23.40;93002.88;5022715;28;20631;-39
2023/03/26 09:57:06;;;;;;;;;;;;;;;27.23;23.81;92996.63;5024037;28;19941;-38
2023/03/26 09:59:37;;;;;;;;;;;;;;;27.51;22.19;92997.34;5049564;28;20699;-38
2023/03/26 10:02:03;;;;;;;;;;;;;;;27.67;21.99;92989.97;5053000;28;20032;-38
2023/03/26 10:04:47;;;;;;;;;;;;;;;27.73;21.96;92992.22;5022146;28;19962;-38
2023/03/26 10:07:30;;;;;;;;;;;;;;;27.84;23.03;92990.31;5022524;28;19978;-38
2023/03/26 10:10:22;;;;;;;;;;;;;;;26.63;23.08;92982.31;5027924;28;19930;-39
2023/03/26 10:12:51;;;;;;;;;;;;;;;26.96;23.30;92987.47;5027177;28;19942;-39
2023/03/26 10:15:35;;;;;;;;;;;;;;;26.56;23.74;92977.88;5047788;28;19940;-38
2023/03/26 10:18:13;;;;;;;;;;;;;;;26.74;23.90;92981.25;5022678;28;19948;-38
2023/03/26 10:20:50;;;;;;;;;;;;;;;27.10;22.19;92978.63;5021304;28;19947;-38
2023/03/26 10:23:37;;;;;;;;;;;;;;;25.67;24.26;92979.47;5049340;28;20754;-38
2023/03/26 10:26:09;;;;;;;;;;;;;;;25.72;24.63;92978.22;5019455;28;20004;-38
2023/03/26 10:28:44;;;;;;;;;;;;;;;24.49;25.86;92974.16;5021969;28;19978;-38
2023/03/26 10:31:12;;;;;;;;;;;;;;;25.37;27.37;92965.09;5022736;28;20027;-38
2023/03/26 10:33:46;;;;;;;;;;;;;;;23.97;27.52;92975.78;5021345;28;20549;-38
2023/03/26 10:36:47;;;;;;;;;;;;;;;22.45;27.46;92960.56;5023126;28;19938;-38
2023/03/26 10:39:14;;;;;;;;;;;;;;;20.44;31.22;92962.41;5029781;28;19986;-38
2023/03/26 10:41:42;;;;;;;;;;;;;;;21.82;28.23;92945.84;5024194;28;20344;-38
2023/03/26 10:44:26;;;;;;;;;;;;;;;22.86;27.51;92942.53;5017129;28;20070;-37
2023/03/26 10:46:51;;;;;;;;;;;;;;;22.52;27.58;92931.28;5012065;28;20064;-38
2023/03/26 10:49:34;;;;;;;;;;;;;;;21.62;29.00;92936.50;5018611;28;20410;-38
2023/03/26 10:52:01;;;;;;;;;;;;;;;22.33;28.91;92931.88;5053234;28;19935;-38
2023/03/26 10:54:30;;;;;;;;;;;;;;;23.92;26.99;92921.34;5037259;28;19994;-38
2023/03/26 10:56:55;;;;;;;;;;;;;;;23.83;25.68;92927.31;5025005;28;20435;-37
2023/03/26 10:59:20;;;;;;;;;;;;;;;21.68;26.57;92910.75;5051393;28;19954;-37
2023/03/26 11:01:52;;;;;;;;;;;;;;;20.31;29.44;92907.09;5027484;28;20340;-39
2023/03/26 11:04:36;;;;;;;;;;;;;;;19.93;29.81;92919.13;5026819;28;20419;-38
2023/03/26 11:07:02;;;;;;;;;;;;;;;19.14;33.38;92911.47;5026269;28;19931;-38
2023/03/26 11:09:37;;;;;;;;;;;;;;;19.19;32.83;92924.34;5024367;28;20016;-38
2023/03/26 11:12:20;;;;;;;;;;;;;;;19.99;31.30;92919.47;5065477;28;19943;-38
2023/03/26 11:14:49;;;;;;;;;;;;;;;21.91;29.20;92906.84;5023303;28;19988;-38
2023/03/26 11:17:21;;;;;;;;;;;;;;;23.53;25.54;92912.81;5027339;28;19936;-38
2023/03/26 11:19:51;;;;;;;;;;;;;;;24.27;25.80;92912.03;5024872;28;20111;-38
2023/03/26 11:22:19;;;;;;;;;;;;;;;23.89;25.95;92905.72;5057798;28;19950;-38
2023/03/26 11:24:48;;;;;;;;;;;;;;;22.56;26.62;92900.53;5023940;28;20301;-36
2023/03/26 11:27:19;;;;;;;;;;;;;;;23.54;26.22;92908.63;5042472;28;20092;-38
2023/03/26 11:29:48;;;;;;;;;;;;;;;24.19;25.51;92911.72;5025893;28;19937;-38
2023/03/26 11:32:21;;;;;;;;;;;;;;;24.04;24.83;92904.88;5025304;28;19948;-38
2023/03/26 11:34:46;;;;;;;;;;;;;;;24.17;26.61;92899.66;5038919;28;20025;-38
2023/03/26 11:37:14;;;;;;;;;;;;;;;23.63;26.33;92898.41;5017927;28;20474;-38
2023/03/26 11:39:50;;;;;;;;;;;;;;;24.40;25.60;92896.22;5055027;28;19982;-38
2023/03/26 11:42:16;;;;;;;;;;;;;;;24.18;26.23;92904.66;5057155;28;20412;-38
2023/03/26 11:45:01;;;;;;;;;;;;;;;23.51;26.06;92906.38;5059569;28;19939;-38
2023/03/26 11:47:31;;;;;;;;;;;;;;;23.65;27.45;92884.38;5052202;28;20409;-38
2023/03/26 11:49:57;;;;;;;;;;;;;;;24.46;24.21;92893.59;5025234;28;19943;-38
2023/03/26 11:52:23;;;;;;;;;;;;;;;23.54;26.61;92882.56;5053640;28;19945;-38
2023/03/26 11:54:49;;;;;;;;;;;;;;;22.78;26.46;92883.13;5027310;28;19931;-38
2023/03/26 11:57:19;;;;;;;;;;;;;;;21.44;26.86;92884.41;5029035;28;20340;-38
2023/03/26 11:59:53;;;;;;;;;;;;;;;20.98;28.07;92868.94;5057040;28;19964;-39
2023/03/26 12:02:23;;;;;;;;;;;;;;;20.86;29.13;92871.88;5058186;28;20014;-38
2023/03/26 12:04:50;;;;;;;;;;;;;;;21.35;28.36;92860.84;5024605;28;19979;-38
2023/03/26 12:07:15;;;;;;;;;;;;;;;21.23;29.52;92865.16;5026978;28;19939;-38
2023/03/26 12:09:55;;;;;;;;;;;;;;;21.68;27.79;92846.13;5023717;28;19960;-38
2023/03/26 12:12:20;;;;;;;;;;;;;;;19.21;29.60;92851.69;5025220;28;19996;-38
2023/03/26 12:14:46;;;;;;;;;;;;;;;19.66;32.18;92844.97;5054717;28;19937;-38
2023/03/26 12:17:13;;;;;;;;;;;;;;;20.75;29.86;92835.56;5026660;28;19955;-38
2023/03/26 12:19:40;;;;;;;;;;;;;;;21.36;30.15;92833.47;5023277;28;20044;-38
2023/03/26 12:22:05;;;;;;;;;;;;;;;22.44;29.01;92828.94;5025892;28;19936;-38
2023/03/26 12:24:34;;;;;;;;;;;;;;;22.01;27.72;92820.88;5051437;28;19937;-38
2023/03/26 12:27:01;;;;;;;;;;;;;;;21.62;27.33;92826.19;5052473;28;20036;-38
2023/03/26 12:29:27;;;;;;;;;;;;;;;21.90;28.26;92827.44;5024396;28;20706;-38
2023/03/26 12:31:56;;;;;;;;;;;;;;;22.06;27.09;92830.94;5023759;28;20028;-38
2023/03/26 12:34:33;;;;;;;;;;;;;;;22.01;26.50;92818.06;5021047;28;19992;-38
2023/03/26 12:36:59;;;;;;;;;;;;;;;21.79;28.14;92819.91;5049835;28;19936;-38
2023/03/26 12:39:25;;;;;;;;;;;;;;;22.04;27.79;92816.06;5041384;28;20485;-38
2023/03/26 12:41:54;;;;;;;;;;;;;;;21.39;28.18;92816.09;5018697;28;20348;-38
2023/03/26 12:44:30;;;;;;;;;;;;;;;21.42;27.16;92809.19;5019997;28;19937;-38
2023/03/26 12:47:05;;;;;;;;;;;;;;;21.38;27.49;92802.66;5019489;28;19931;-38
2023/03/26 12:49:32;;;;;;;;;;;;;;;21.47;29.04;92805.19;5059699;28;20451;-38
2023/03/26 12:52:01;;;;;;;;;;;;;;;21.72;26.80;92807.69;5028683;28;20035;-38
2023/03/26 12:54:43;;;;;;;;;;;;;;;21.28;26.92;92805.03;5054019;28;19932;-38
2023/03/26 12:57:11;;;;;;;;;;;;;;;20.44;30.51;92796.97;5022857;28;20559;-38
2023/03/26 12:59:57;;;;;;;;;;;;;;;20.19;29.23;92797.13;5024240;28;19954;-38